sensor_id;sensor_type;location;lat;lon;timestamp;P1;durP1;ratioP1;P2;durP2;ratioP2
76171;SDS011;64929;51.178;4.138;2023-05-31T00:00:31;2.90;;;2.33;;
76171;SDS011;64929;51.178;4.138;2023-05-31T00:02:57;2.53;;;2.03;;
76171;SDS011;64929;51.178;4.138;2023-05-31T00:05:22;2.47;;;2.00;;
76171;SDS011;64929;51.178;4.138;2023-05-31T00:07:48;2.70;;;2.47;;
76171;SDS011;64929;51.178;4.138;2023-05-31T00:10:14;3.42;;;1.92;;
76171;SDS011;64929;51.178;4.138;2023-05-31T00:12:40;3.10;;;2.50;;
76171;SDS011;64929;51.178;4.138;2023-05-31T00:15:06;2.95;;;2.15;;
76171;SDS011;64929;51.178;4.138;2023-05-31T00:17:32;2.60;;;2.40;;
76171;SDS011;64929;51.178;4.138;2023-05-31T00:19:57;4.68;;;2.20;;
76171;SDS011;64929;51.178;4.138;2023-05-31T00:22:23;3.72;;;2.47;;
76171;SDS011;64929;51.178;4.138;2023-05-31T00:24:49;3.55;;;2.35;;
76171;SDS011;64929;51.178;4.138;2023-05-31T00:27:15;3.83;;;1.98;;
76171;SDS011;64929;51.178;4.138;2023-05-31T00:29:40;2.80;;;2.50;;
76171;SDS011;64929;51.178;4.138;2023-05-31T00:32:06;3.38;;;2.47;;
76171;SDS011;64929;51.178;4.138;2023-05-31T00:34:32;3.38;;;2.53;;
76171;SDS011;64929;51.178;4.138;2023-05-31T00:36:58;3.45;;;2.38;;
76171;SDS011;64929;51.178;4.138;2023-05-31T00:39:23;3.20;;;2.50;;
76171;SDS011;64929;51.178;4.138;2023-05-31T00:41:49;3.15;;;2.40;;
76171;SDS011;64929;51.178;4.138;2023-05-31T00:44:15;5.93;;;3.70;;
76171;SDS011;64929;51.178;4.138;2023-05-31T00:46:40;7.25;;;3.75;;
76171;SDS011;64929;51.178;4.138;2023-05-31T00:49:06;3.85;;;2.45;;
76171;SDS011;64929;51.178;4.138;2023-05-31T00:51:33;2.70;;;2.50;;
76171;SDS011;64929;51.178;4.138;2023-05-31T00:54:01;3.47;;;2.10;;
76171;SDS011;64929;51.178;4.138;2023-05-31T00:56:27;4.28;;;2.38;;
76171;SDS011;64929;51.178;4.138;2023-05-31T00:58:54;4.82;;;2.88;;
76171;SDS011;64929;51.178;4.138;2023-05-31T01:01:22;3.60;;;2.70;;
76171;SDS011;64929;51.178;4.138;2023-05-31T01:03:54;3.28;;;2.60;;
76171;SDS011;64929;51.178;4.138;2023-05-31T01:06:22;3.35;;;2.80;;
76171;SDS011;64929;51.178;4.138;2023-05-31T01:08:48;3.83;;;2.65;;
76171;SDS011;64929;51.178;4.138;2023-05-31T01:16:45;3.42;;;2.50;;
76171;SDS011;64929;51.178;4.138;2023-05-31T01:19:29;2.63;;;2.17;;
76171;SDS011;64929;51.178;4.138;2023-05-31T01:25:09;5.00;;;2.53;;
76171;SDS011;64929;51.178;4.138;2023-05-31T01:27:39;2.63;;;2.25;;
76171;SDS011;64929;51.178;4.138;2023-05-31T01:30:07;4.03;;;2.45;;
76171;SDS011;64929;51.178;4.138;2023-05-31T01:32:34;3.25;;;2.38;;
76171;SDS011;64929;51.178;4.138;2023-05-31T01:35:02;3.53;;;2.58;;
76171;SDS011;64929;51.178;4.138;2023-05-31T01:37:28;5.25;;;2.45;;
76171;SDS011;64929;51.178;4.138;2023-05-31T01:39:54;4.43;;;2.55;;
76171;SDS011;64929;51.178;4.138;2023-05-31T01:42:20;3.60;;;2.60;;
76171;SDS011;64929;51.178;4.138;2023-05-31T01:44:48;4.57;;;2.95;;
76171;SDS011;64929;51.178;4.138;2023-05-31T01:47:16;3.47;;;2.55;;
76171;SDS011;64929;51.178;4.138;2023-05-31T01:49:43;4.32;;;2.30;;
76171;SDS011;64929;51.178;4.138;2023-05-31T01:52:10;3.97;;;2.85;;
76171;SDS011;64929;51.178;4.138;2023-05-31T01:54:40;2.95;;;2.47;;
76171;SDS011;64929;51.178;4.138;2023-05-31T01:57:06;3.47;;;2.50;;
76171;SDS011;64929;51.178;4.138;2023-05-31T01:59:34;3.25;;;2.67;;
76171;SDS011;64929;51.178;4.138;2023-05-31T02:02:01;2.78;;;2.45;;
76171;SDS011;64929;51.178;4.138;2023-05-31T02:04:28;2.85;;;2.25;;
76171;SDS011;64929;51.178;4.138;2023-05-31T02:06:54;3.10;;;2.80;;
76171;SDS011;64929;51.178;4.138;2023-05-31T02:09:20;3.75;;;2.65;;
76171;SDS011;64929;51.178;4.138;2023-05-31T02:11:46;3.00;;;2.70;;
76171;SDS011;64929;51.178;4.138;2023-05-31T02:14:12;3.17;;;2.70;;
76171;SDS011;64929;51.178;4.138;2023-05-31T02:16:37;3.88;;;2.90;;
76171;SDS011;64929;51.178;4.138;2023-05-31T02:19:03;4.85;;;2.80;;
76171;SDS011;64929;51.178;4.138;2023-05-31T02:21:29;4.30;;;2.70;;
76171;SDS011;64929;51.178;4.138;2023-05-31T02:23:58;3.65;;;2.80;;
76171;SDS011;64929;51.178;4.138;2023-05-31T02:26:24;5.80;;;3.00;;
76171;SDS011;64929;51.178;4.138;2023-05-31T02:28:51;3.85;;;3.05;;
76171;SDS011;64929;51.178;4.138;2023-05-31T02:31:17;4.45;;;3.00;;
76171;SDS011;64929;51.178;4.138;2023-05-31T02:33:43;3.85;;;2.85;;
76171;SDS011;64929;51.178;4.138;2023-05-31T02:36:09;4.60;;;2.90;;
76171;SDS011;64929;51.178;4.138;2023-05-31T02:38:36;4.20;;;2.92;;
76171;SDS011;64929;51.178;4.138;2023-05-31T02:41:02;4.03;;;3.05;;
76171;SDS011;64929;51.178;4.138;2023-05-31T02:43:28;3.20;;;2.90;;
76171;SDS011;64929;51.178;4.138;2023-05-31T02:45:55;3.83;;;2.88;;
76171;SDS011;64929;51.178;4.138;2023-05-31T02:48:21;5.57;;;2.92;;
76171;SDS011;64929;51.178;4.138;2023-05-31T02:50:47;4.18;;;3.17;;
76171;SDS011;64929;51.178;4.138;2023-05-31T02:53:12;3.30;;;2.97;;
76171;SDS011;64929;51.178;4.138;2023-05-31T02:55:38;4.15;;;3.20;;
76171;SDS011;64929;51.178;4.138;2023-05-31T02:58:04;5.38;;;2.97;;
76171;SDS011;64929;51.178;4.138;2023-05-31T03:00:32;4.93;;;3.35;;
76171;SDS011;64929;51.178;4.138;2023-05-31T03:02:58;6.97;;;2.83;;
76171;SDS011;64929;51.178;4.138;2023-05-31T03:05:24;4.43;;;3.17;;
76171;SDS011;64929;51.178;4.138;2023-05-31T03:07:51;4.45;;;3.53;;
76171;SDS011;64929;51.178;4.138;2023-05-31T03:10:16;4.47;;;3.42;;
76171;SDS011;64929;51.178;4.138;2023-05-31T03:12:42;3.67;;;2.90;;
76171;SDS011;64929;51.178;4.138;2023-05-31T03:15:08;4.82;;;3.28;;
76171;SDS011;64929;51.178;4.138;2023-05-31T03:17:34;4.55;;;3.10;;
76171;SDS011;64929;51.178;4.138;2023-05-31T03:20:02;3.60;;;3.17;;
76171;SDS011;64929;51.178;4.138;2023-05-31T03:22:29;4.32;;;3.28;;
76171;SDS011;64929;51.178;4.138;2023-05-31T03:24:54;4.28;;;3.10;;
76171;SDS011;64929;51.178;4.138;2023-05-31T03:27:20;5.20;;;3.50;;
76171;SDS011;64929;51.178;4.138;2023-05-31T03:29:45;4.13;;;3.22;;
76171;SDS011;64929;51.178;4.138;2023-05-31T03:32:11;6.60;;;3.58;;
76171;SDS011;64929;51.178;4.138;2023-05-31T03:34:37;4.85;;;3.58;;
76171;SDS011;64929;51.178;4.138;2023-05-31T03:37:02;8.73;;;3.25;;
76171;SDS011;64929;51.178;4.138;2023-05-31T03:39:28;6.95;;;3.20;;
76171;SDS011;64929;51.178;4.138;2023-05-31T03:41:54;5.32;;;3.50;;
76171;SDS011;64929;51.178;4.138;2023-05-31T03:44:20;4.20;;;3.40;;
76171;SDS011;64929;51.178;4.138;2023-05-31T03:46:45;4.75;;;3.33;;
76171;SDS011;64929;51.178;4.138;2023-05-31T03:49:12;4.85;;;3.67;;
76171;SDS011;64929;51.178;4.138;2023-05-31T03:51:37;4.82;;;3.22;;
76171;SDS011;64929;51.178;4.138;2023-05-31T03:54:03;5.13;;;3.40;;
76171;SDS011;64929;51.178;4.138;2023-05-31T03:56:29;6.10;;;3.47;;
76171;SDS011;64929;51.178;4.138;2023-05-31T03:58:54;6.10;;;3.65;;
76171;SDS011;64929;51.178;4.138;2023-05-31T04:01:20;5.65;;;3.53;;
76171;SDS011;64929;51.178;4.138;2023-05-31T04:03:46;4.85;;;3.55;;
76171;SDS011;64929;51.178;4.138;2023-05-31T04:06:12;4.50;;;3.38;;
76171;SDS011;64929;51.178;4.138;2023-05-31T04:08:37;5.22;;;3.70;;
76171;SDS011;64929;51.178;4.138;2023-05-31T04:11:03;6.18;;;3.28;;
76171;SDS011;64929;51.178;4.138;2023-05-31T04:13:29;5.80;;;3.70;;
76171;SDS011;64929;51.178;4.138;2023-05-31T04:15:55;4.47;;;3.30;;
76171;SDS011;64929;51.178;4.138;2023-05-31T04:18:20;5.75;;;3.88;;
76171;SDS011;64929;51.178;4.138;2023-05-31T04:20:46;5.05;;;3.75;;
76171;SDS011;64929;51.178;4.138;2023-05-31T04:23:12;5.38;;;3.67;;
76171;SDS011;64929;51.178;4.138;2023-05-31T04:25:38;4.63;;;3.70;;
76171;SDS011;64929;51.178;4.138;2023-05-31T04:28:03;5.32;;;3.40;;
76171;SDS011;64929;51.178;4.138;2023-05-31T04:30:30;8.25;;;3.30;;
76171;SDS011;64929;51.178;4.138;2023-05-31T04:32:56;5.93;;;3.67;;
76171;SDS011;64929;51.178;4.138;2023-05-31T04:35:22;6.03;;;3.67;;
76171;SDS011;64929;51.178;4.138;2023-05-31T04:37:48;4.93;;;3.50;;
76171;SDS011;64929;51.178;4.138;2023-05-31T04:40:17;5.93;;;3.80;;
76171;SDS011;64929;51.178;4.138;2023-05-31T04:42:45;7.43;;;3.70;;
76171;SDS011;64929;51.178;4.138;2023-05-31T04:45:11;5.38;;;3.63;;
76171;SDS011;64929;51.178;4.138;2023-05-31T04:47:37;5.75;;;3.65;;
76171;SDS011;64929;51.178;4.138;2023-05-31T04:50:02;4.32;;;3.60;;
76171;SDS011;64929;51.178;4.138;2023-05-31T04:52:29;5.32;;;4.18;;
76171;SDS011;64929;51.178;4.138;2023-05-31T04:54:57;6.40;;;4.18;;
76171;SDS011;64929;51.178;4.138;2023-05-31T04:57:26;7.00;;;3.55;;
76171;SDS011;64929;51.178;4.138;2023-05-31T04:59:53;7.03;;;3.67;;
76171;SDS011;64929;51.178;4.138;2023-05-31T05:02:21;5.22;;;3.88;;
76171;SDS011;64929;51.178;4.138;2023-05-31T05:04:47;9.25;;;4.05;;
76171;SDS011;64929;51.178;4.138;2023-05-31T05:07:14;5.63;;;3.78;;
76171;SDS011;64929;51.178;4.138;2023-05-31T05:09:41;6.15;;;3.85;;
76171;SDS011;64929;51.178;4.138;2023-05-31T05:12:07;5.43;;;3.70;;
76171;SDS011;64929;51.178;4.138;2023-05-31T05:14:34;7.70;;;3.97;;
76171;SDS011;64929;51.178;4.138;2023-05-31T05:17:00;6.35;;;4.18;;
76171;SDS011;64929;51.178;4.138;2023-05-31T05:19:25;6.63;;;4.63;;
76171;SDS011;64929;51.178;4.138;2023-05-31T05:21:51;5.63;;;3.95;;
76171;SDS011;64929;51.178;4.138;2023-05-31T05:24:17;6.50;;;4.78;;
76171;SDS011;64929;51.178;4.138;2023-05-31T05:26:43;7.18;;;4.32;;
76171;SDS011;64929;51.178;4.138;2023-05-31T05:29:09;8.38;;;4.45;;
76171;SDS011;64929;51.178;4.138;2023-05-31T05:31:35;8.05;;;4.25;;
76171;SDS011;64929;51.178;4.138;2023-05-31T05:34:00;6.57;;;4.28;;
76171;SDS011;64929;51.178;4.138;2023-05-31T05:36:26;6.25;;;4.50;;
76171;SDS011;64929;51.178;4.138;2023-05-31T05:38:52;7.70;;;4.65;;
76171;SDS011;64929;51.178;4.138;2023-05-31T05:41:18;8.65;;;4.88;;
76171;SDS011;64929;51.178;4.138;2023-05-31T05:43:44;5.55;;;4.03;;
76171;SDS011;64929;51.178;4.138;2023-05-31T05:46:09;7.18;;;4.18;;
76171;SDS011;64929;51.178;4.138;2023-05-31T05:48:35;8.23;;;4.18;;
76171;SDS011;64929;51.178;4.138;2023-05-31T05:51:01;6.10;;;4.10;;
76171;SDS011;64929;51.178;4.138;2023-05-31T05:53:28;7.47;;;4.85;;
76171;SDS011;64929;51.178;4.138;2023-05-31T05:55:54;6.32;;;4.32;;
76171;SDS011;64929;51.178;4.138;2023-05-31T05:58:19;7.68;;;4.65;;
76171;SDS011;64929;51.178;4.138;2023-05-31T06:00:46;5.32;;;4.05;;
76171;SDS011;64929;51.178;4.138;2023-05-31T06:03:12;7.45;;;4.70;;
76171;SDS011;64929;51.178;4.138;2023-05-31T06:05:41;6.47;;;4.55;;
76171;SDS011;64929;51.178;4.138;2023-05-31T06:08:07;8.10;;;4.72;;
76171;SDS011;64929;51.178;4.138;2023-05-31T06:10:33;5.85;;;4.68;;
76171;SDS011;64929;51.178;4.138;2023-05-31T06:12:59;5.70;;;4.50;;
76171;SDS011;64929;51.178;4.138;2023-05-31T06:15:24;7.53;;;4.90;;
76171;SDS011;64929;51.178;4.138;2023-05-31T06:17:50;7.93;;;4.85;;
76171;SDS011;64929;51.178;4.138;2023-05-31T06:20:17;8.13;;;4.80;;
76171;SDS011;64929;51.178;4.138;2023-05-31T06:22:43;8.20;;;5.13;;
76171;SDS011;64929;51.178;4.138;2023-05-31T06:25:09;9.15;;;5.00;;
76171;SDS011;64929;51.178;4.138;2023-05-31T06:27:35;9.43;;;4.88;;
76171;SDS011;64929;51.178;4.138;2023-05-31T06:30:01;6.93;;;4.50;;
76171;SDS011;64929;51.178;4.138;2023-05-31T06:32:27;6.50;;;4.68;;
76171;SDS011;64929;51.178;4.138;2023-05-31T06:34:53;7.72;;;4.82;;
76171;SDS011;64929;51.178;4.138;2023-05-31T06:37:19;7.35;;;4.90;;
76171;SDS011;64929;51.178;4.138;2023-05-31T06:39:46;9.07;;;4.80;;
76171;SDS011;64929;51.178;4.138;2023-05-31T06:42:12;7.10;;;4.40;;
76171;SDS011;64929;51.178;4.138;2023-05-31T06:44:39;5.85;;;4.38;;
76171;SDS011;64929;51.178;4.138;2023-05-31T06:47:06;7.47;;;4.60;;
76171;SDS011;64929;51.178;4.138;2023-05-31T06:49:31;7.93;;;5.13;;
76171;SDS011;64929;51.178;4.138;2023-05-31T06:51:57;7.40;;;5.20;;
76171;SDS011;64929;51.178;4.138;2023-05-31T06:54:23;8.02;;;4.90;;
76171;SDS011;64929;51.178;4.138;2023-05-31T06:56:49;11.90;;;4.72;;
76171;SDS011;64929;51.178;4.138;2023-05-31T06:59:14;5.97;;;4.45;;
76171;SDS011;64929;51.178;4.138;2023-05-31T07:01:40;7.15;;;4.80;;
76171;SDS011;64929;51.178;4.138;2023-05-31T07:04:06;9.32;;;5.15;;
76171;SDS011;64929;51.178;4.138;2023-05-31T07:06:32;6.85;;;4.55;;
76171;SDS011;64929;51.178;4.138;2023-05-31T07:08:58;7.63;;;5.00;;
76171;SDS011;64929;51.178;4.138;2023-05-31T07:11:24;9.15;;;5.05;;
76171;SDS011;64929;51.178;4.138;2023-05-31T07:13:50;7.88;;;4.88;;
76171;SDS011;64929;51.178;4.138;2023-05-31T07:16:16;8.32;;;5.32;;
76171;SDS011;64929;51.178;4.138;2023-05-31T07:18:42;8.10;;;5.55;;
76171;SDS011;64929;51.178;4.138;2023-05-31T07:21:07;9.57;;;5.30;;
76171;SDS011;64929;51.178;4.138;2023-05-31T07:23:33;9.70;;;5.60;;
76171;SDS011;64929;51.178;4.138;2023-05-31T07:25:59;6.85;;;4.80;;
76171;SDS011;64929;51.178;4.138;2023-05-31T07:28:27;14.77;;;5.63;;
76171;SDS011;64929;51.178;4.138;2023-05-31T07:30:53;9.40;;;5.30;;
76171;SDS011;64929;51.178;4.138;2023-05-31T07:33:18;9.75;;;5.07;;
76171;SDS011;64929;51.178;4.138;2023-05-31T07:35:44;10.10;;;5.13;;
76171;SDS011;64929;51.178;4.138;2023-05-31T07:38:10;7.70;;;5.13;;
76171;SDS011;64929;51.178;4.138;2023-05-31T07:40:36;9.73;;;5.55;;
76171;SDS011;64929;51.178;4.138;2023-05-31T07:43:01;7.88;;;5.32;;
76171;SDS011;64929;51.178;4.138;2023-05-31T07:45:27;7.57;;;5.10;;
76171;SDS011;64929;51.178;4.138;2023-05-31T07:47:53;8.07;;;5.10;;
76171;SDS011;64929;51.178;4.138;2023-05-31T07:50:19;8.43;;;5.05;;
76171;SDS011;64929;51.178;4.138;2023-05-31T07:52:44;6.95;;;4.50;;
76171;SDS011;64929;51.178;4.138;2023-05-31T07:55:15;7.95;;;4.68;;
76171;SDS011;64929;51.178;4.138;2023-05-31T07:57:44;9.18;;;4.70;;
76171;SDS011;64929;51.178;4.138;2023-05-31T08:00:10;7.25;;;4.57;;
76171;SDS011;64929;51.178;4.138;2023-05-31T08:02:38;9.75;;;5.00;;
76171;SDS011;64929;51.178;4.138;2023-05-31T08:05:05;8.35;;;4.63;;
76171;SDS011;64929;51.178;4.138;2023-05-31T08:07:32;8.70;;;4.80;;
76171;SDS011;64929;51.178;4.138;2023-05-31T08:09:58;6.32;;;4.60;;
76171;SDS011;64929;51.178;4.138;2023-05-31T08:12:24;9.90;;;5.45;;
76171;SDS011;64929;51.178;4.138;2023-05-31T08:14:49;8.13;;;4.95;;
76171;SDS011;64929;51.178;4.138;2023-05-31T08:17:15;9.90;;;5.78;;
76171;SDS011;64929;51.178;4.138;2023-05-31T08:19:41;7.35;;;4.68;;
76171;SDS011;64929;51.178;4.138;2023-05-31T08:22:07;7.47;;;4.63;;
76171;SDS011;64929;51.178;4.138;2023-05-31T08:24:33;9.98;;;4.90;;
76171;SDS011;64929;51.178;4.138;2023-05-31T08:26:59;9.18;;;5.03;;
76171;SDS011;64929;51.178;4.138;2023-05-31T08:29:24;9.45;;;4.75;;
76171;SDS011;64929;51.178;4.138;2023-05-31T08:31:50;9.55;;;5.20;;
76171;SDS011;64929;51.178;4.138;2023-05-31T08:34:16;8.85;;;4.97;;
76171;SDS011;64929;51.178;4.138;2023-05-31T08:36:43;8.10;;;5.13;;
76171;SDS011;64929;51.178;4.138;2023-05-31T08:39:09;6.95;;;5.03;;
76171;SDS011;64929;51.178;4.138;2023-05-31T08:41:58;8.52;;;5.05;;
76171;SDS011;64929;51.178;4.138;2023-05-31T08:44:26;10.13;;;5.28;;
76171;SDS011;64929;51.178;4.138;2023-05-31T08:46:53;8.75;;;5.35;;
76171;SDS011;64929;51.178;4.138;2023-05-31T08:49:48;8.32;;;5.53;;
76171;SDS011;64929;51.178;4.138;2023-05-31T08:52:14;9.07;;;5.50;;
76171;SDS011;64929;51.178;4.138;2023-05-31T08:54:42;9.25;;;5.30;;
76171;SDS011;64929;51.178;4.138;2023-05-31T08:57:09;7.50;;;4.75;;
76171;SDS011;64929;51.178;4.138;2023-05-31T08:59:36;8.15;;;4.75;;
76171;SDS011;64929;51.178;4.138;2023-05-31T09:02:03;8.15;;;4.88;;
76171;SDS011;64929;51.178;4.138;2023-05-31T09:04:30;6.93;;;4.20;;
76171;SDS011;64929;51.178;4.138;2023-05-31T09:06:55;8.77;;;4.43;;
76171;SDS011;64929;51.178;4.138;2023-05-31T09:09:21;8.07;;;5.05;;
76171;SDS011;64929;51.178;4.138;2023-05-31T09:11:47;11.20;;;5.03;;
76171;SDS011;64929;51.178;4.138;2023-05-31T09:14:13;6.80;;;4.07;;
76171;SDS011;64929;51.178;4.138;2023-05-31T09:16:39;7.32;;;4.30;;
76171;SDS011;64929;51.178;4.138;2023-05-31T09:19:06;8.68;;;4.88;;
76171;SDS011;64929;51.178;4.138;2023-05-31T09:21:38;7.40;;;4.40;;
76171;SDS011;64929;51.178;4.138;2023-05-31T09:24:05;8.10;;;4.43;;
76171;SDS011;64929;51.178;4.138;2023-05-31T09:26:31;8.15;;;4.43;;
76171;SDS011;64929;51.178;4.138;2023-05-31T09:28:58;8.50;;;4.38;;
76171;SDS011;64929;51.178;4.138;2023-05-31T09:31:24;6.88;;;4.05;;
76171;SDS011;64929;51.178;4.138;2023-05-31T09:33:51;7.25;;;4.50;;
76171;SDS011;64929;51.178;4.138;2023-05-31T09:36:26;8.73;;;4.75;;
76171;SDS011;64929;51.178;4.138;2023-05-31T09:38:59;6.53;;;4.10;;
76171;SDS011;64929;51.178;4.138;2023-05-31T09:41:34;5.95;;;4.20;;
76171;SDS011;64929;51.178;4.138;2023-05-31T09:44:00;6.95;;;4.20;;
76171;SDS011;64929;51.178;4.138;2023-05-31T09:46:27;4.72;;;3.58;;
76171;SDS011;64929;51.178;4.138;2023-05-31T09:48:59;7.85;;;4.10;;
76171;SDS011;64929;51.178;4.138;2023-05-31T09:51:26;4.93;;;3.55;;
76171;SDS011;64929;51.178;4.138;2023-05-31T09:53:53;6.18;;;3.25;;
76171;SDS011;64929;51.178;4.138;2023-05-31T09:56:21;7.30;;;3.88;;
76171;SDS011;64929;51.178;4.138;2023-05-31T09:58:48;5.20;;;3.83;;
76171;SDS011;64929;51.178;4.138;2023-05-31T10:01:15;5.13;;;3.50;;
76171;SDS011;64929;51.178;4.138;2023-05-31T10:03:45;8.00;;;3.67;;
76171;SDS011;64929;51.178;4.138;2023-05-31T10:06:13;6.63;;;3.95;;
76171;SDS011;64929;51.178;4.138;2023-05-31T10:08:41;4.43;;;3.10;;
76171;SDS011;64929;51.178;4.138;2023-05-31T10:11:08;7.35;;;3.30;;
76171;SDS011;64929;51.178;4.138;2023-05-31T10:13:38;6.43;;;3.55;;
76171;SDS011;64929;51.178;4.138;2023-05-31T10:16:10;6.75;;;3.42;;
76171;SDS011;64929;51.178;4.138;2023-05-31T10:18:37;8.77;;;3.42;;
76171;SDS011;64929;51.178;4.138;2023-05-31T10:21:08;5.70;;;3.05;;
76171;SDS011;64929;51.178;4.138;2023-05-31T10:26:46;7.25;;;3.40;;
76171;SDS011;64929;51.178;4.138;2023-05-31T10:29:40;4.68;;;2.88;;
76171;SDS011;64929;51.178;4.138;2023-05-31T10:32:13;3.90;;;2.30;;
76171;SDS011;64929;51.178;4.138;2023-05-31T10:34:43;4.82;;;3.20;;
76171;SDS011;64929;51.178;4.138;2023-05-31T10:37:10;5.50;;;2.60;;
76171;SDS011;64929;51.178;4.138;2023-05-31T10:45:34;3.10;;;2.28;;
76171;SDS011;64929;51.178;4.138;2023-05-31T10:48:22;4.95;;;2.65;;
76171;SDS011;64929;51.178;4.138;2023-05-31T10:51:10;4.35;;;3.00;;
76171;SDS011;64929;51.178;4.138;2023-05-31T10:53:40;6.78;;;3.42;;
76171;SDS011;64929;51.178;4.138;2023-05-31T10:56:11;5.70;;;3.30;;
76171;SDS011;64929;51.178;4.138;2023-05-31T10:58:47;5.32;;;2.70;;
76171;SDS011;64929;51.178;4.138;2023-05-31T11:01:16;4.72;;;2.50;;
76171;SDS011;64929;51.178;4.138;2023-05-31T11:03:52;3.75;;;2.42;;
76171;SDS011;64929;51.178;4.138;2023-05-31T11:06:22;2.85;;;2.20;;
76171;SDS011;64929;51.178;4.138;2023-05-31T11:19:01;5.88;;;2.42;;
76171;SDS011;64929;51.178;4.138;2023-05-31T11:26:54;6.93;;;3.17;;
76171;SDS011;64929;51.178;4.138;2023-05-31T11:29:25;5.93;;;2.80;;
76171;SDS011;64929;51.178;4.138;2023-05-31T11:32:09;5.95;;;2.40;;
76171;SDS011;64929;51.178;4.138;2023-05-31T11:34:36;3.88;;;2.35;;
76171;SDS011;64929;51.178;4.138;2023-05-31T11:37:26;5.45;;;2.63;;
76171;SDS011;64929;51.178;4.138;2023-05-31T11:39:53;3.95;;;2.67;;
76171;SDS011;64929;51.178;4.138;2023-05-31T11:42:22;6.25;;;2.63;;
76171;SDS011;64929;51.178;4.138;2023-05-31T11:44:49;5.45;;;2.47;;
76171;SDS011;64929;51.178;4.138;2023-05-31T11:49:45;5.10;;;3.00;;
76171;SDS011;64929;51.178;4.138;2023-05-31T11:52:15;4.50;;;2.70;;
76171;SDS011;64929;51.178;4.138;2023-05-31T11:54:43;3.72;;;2.20;;
76171;SDS011;64929;51.178;4.138;2023-05-31T11:57:10;3.40;;;2.17;;
76171;SDS011;64929;51.178;4.138;2023-05-31T11:59:37;6.40;;;2.20;;
76171;SDS011;64929;51.178;4.138;2023-05-31T12:02:05;5.18;;;2.28;;
76171;SDS011;64929;51.178;4.138;2023-05-31T12:04:38;4.05;;;2.05;;
76171;SDS011;64929;51.178;4.138;2023-05-31T12:07:09;3.85;;;2.38;;
76171;SDS011;64929;51.178;4.138;2023-05-31T12:09:36;6.18;;;1.85;;
76171;SDS011;64929;51.178;4.138;2023-05-31T12:12:02;3.80;;;1.83;;
76171;SDS011;64929;51.178;4.138;2023-05-31T12:14:30;4.15;;;2.55;;
76171;SDS011;64929;51.178;4.138;2023-05-31T12:16:57;2.80;;;1.80;;
76171;SDS011;64929;51.178;4.138;2023-05-31T12:19:28;4.90;;;2.25;;
76171;SDS011;64929;51.178;4.138;2023-05-31T12:21:54;4.32;;;1.58;;
76171;SDS011;64929;51.178;4.138;2023-05-31T12:24:19;2.28;;;1.52;;
76171;SDS011;64929;51.178;4.138;2023-05-31T12:26:45;3.53;;;1.73;;
76171;SDS011;64929;51.178;4.138;2023-05-31T12:29:16;4.93;;;1.67;;
76171;SDS011;64929;51.178;4.138;2023-05-31T12:31:43;4.55;;;1.92;;
76171;SDS011;64929;51.178;4.138;2023-05-31T12:36:47;3.00;;;1.80;;
76171;SDS011;64929;51.178;4.138;2023-05-31T12:39:20;3.88;;;1.90;;
76171;SDS011;64929;51.178;4.138;2023-05-31T12:41:49;3.65;;;1.70;;
76171;SDS011;64929;51.178;4.138;2023-05-31T12:44:20;4.90;;;1.90;;
76171;SDS011;64929;51.178;4.138;2023-05-31T12:46:47;3.10;;;1.88;;
76171;SDS011;64929;51.178;4.138;2023-05-31T12:54:24;4.05;;;2.03;;
76171;SDS011;64929;51.178;4.138;2023-05-31T13:00:06;3.90;;;1.45;;
76171;SDS011;64929;51.178;4.138;2023-05-31T13:02:36;3.00;;;1.50;;
76171;SDS011;64929;51.178;4.138;2023-05-31T13:05:03;2.97;;;1.70;;
76171;SDS011;64929;51.178;4.138;2023-05-31T13:07:29;3.45;;;1.40;;
76171;SDS011;64929;51.178;4.138;2023-05-31T13:09:55;2.63;;;1.27;;
76171;SDS011;64929;51.178;4.138;2023-05-31T13:12:21;2.97;;;1.48;;
76171;SDS011;64929;51.178;4.138;2023-05-31T13:14:47;2.78;;;1.65;;
76171;SDS011;64929;51.178;4.138;2023-05-31T13:17:13;2.50;;;1.40;;
76171;SDS011;64929;51.178;4.138;2023-05-31T13:19:40;5.50;;;2.13;;
76171;SDS011;64929;51.178;4.138;2023-05-31T13:22:06;2.72;;;1.63;;
76171;SDS011;64929;51.178;4.138;2023-05-31T13:24:32;3.10;;;1.65;;
76171;SDS011;64929;51.178;4.138;2023-05-31T13:26:58;4.78;;;2.00;;
76171;SDS011;64929;51.178;4.138;2023-05-31T13:29:24;3.20;;;1.77;;
76171;SDS011;64929;51.178;4.138;2023-05-31T13:31:50;3.75;;;1.63;;
76171;SDS011;64929;51.178;4.138;2023-05-31T13:34:16;1.65;;;1.27;;
76171;SDS011;64929;51.178;4.138;2023-05-31T13:36:43;2.20;;;1.48;;
76171;SDS011;64929;51.178;4.138;2023-05-31T13:39:09;5.82;;;1.80;;
76171;SDS011;64929;51.178;4.138;2023-05-31T13:41:38;2.65;;;1.65;;
76171;SDS011;64929;51.178;4.138;2023-05-31T13:44:04;4.45;;;1.58;;
76171;SDS011;64929;51.178;4.138;2023-05-31T13:46:30;5.40;;;2.75;;
76171;SDS011;64929;51.178;4.138;2023-05-31T13:48:55;3.92;;;1.52;;
76171;SDS011;64929;51.178;4.138;2023-05-31T13:51:21;1.58;;;1.30;;
76171;SDS011;64929;51.178;4.138;2023-05-31T13:53:47;2.63;;;1.30;;
76171;SDS011;64929;51.178;4.138;2023-05-31T13:56:13;1.98;;;1.33;;
76171;SDS011;64929;51.178;4.138;2023-05-31T13:58:38;1.95;;;1.23;;
76171;SDS011;64929;51.178;4.138;2023-05-31T14:01:04;2.35;;;1.38;;
76171;SDS011;64929;51.178;4.138;2023-05-31T14:03:32;3.65;;;1.20;;
76171;SDS011;64929;51.178;4.138;2023-05-31T14:05:57;1.15;;;1.00;;
76171;SDS011;64929;51.178;4.138;2023-05-31T14:08:23;2.25;;;0.88;;
76171;SDS011;64929;51.178;4.138;2023-05-31T14:10:49;2.47;;;1.30;;
76171;SDS011;64929;51.178;4.138;2023-05-31T14:13:15;2.38;;;1.17;;
76171;SDS011;64929;51.178;4.138;2023-05-31T14:15:40;2.53;;;1.40;;
76171;SDS011;64929;51.178;4.138;2023-05-31T14:18:06;2.03;;;1.35;;
76171;SDS011;64929;51.178;4.138;2023-05-31T14:20:33;3.15;;;1.27;;
76171;SDS011;64929;51.178;4.138;2023-05-31T14:22:58;1.48;;;1.00;;
76171;SDS011;64929;51.178;4.138;2023-05-31T14:25:25;1.83;;;1.00;;
76171;SDS011;64929;51.178;4.138;2023-05-31T14:27:50;0.85;;;0.80;;
76171;SDS011;64929;51.178;4.138;2023-05-31T14:30:16;2.90;;;1.40;;
76171;SDS011;64929;51.178;4.138;2023-05-31T14:32:42;1.98;;;1.00;;
76171;SDS011;64929;51.178;4.138;2023-05-31T14:35:08;2.42;;;0.73;;
76171;SDS011;64929;51.178;4.138;2023-05-31T14:37:38;1.60;;;1.23;;
76171;SDS011;64929;51.178;4.138;2023-05-31T14:40:04;2.00;;;1.10;;
76171;SDS011;64929;51.178;4.138;2023-05-31T14:42:30;1.45;;;0.90;;
76171;SDS011;64929;51.178;4.138;2023-05-31T14:44:56;5.35;;;1.92;;
76171;SDS011;64929;51.178;4.138;2023-05-31T14:47:22;1.80;;;1.00;;
76171;SDS011;64929;51.178;4.138;2023-05-31T14:49:47;2.78;;;1.30;;
76171;SDS011;64929;51.178;4.138;2023-05-31T14:52:13;1.33;;;1.00;;
76171;SDS011;64929;51.178;4.138;2023-05-31T14:54:39;2.25;;;0.98;;
76171;SDS011;64929;51.178;4.138;2023-05-31T14:57:05;1.80;;;1.00;;
76171;SDS011;64929;51.178;4.138;2023-05-31T14:59:31;1.92;;;1.20;;
76171;SDS011;64929;51.178;4.138;2023-05-31T15:01:57;4.80;;;1.10;;
76171;SDS011;64929;51.178;4.138;2023-05-31T15:04:25;1.38;;;1.00;;
76171;SDS011;64929;51.178;4.138;2023-05-31T15:06:51;1.33;;;1.10;;
76171;SDS011;64929;51.178;4.138;2023-05-31T15:09:17;1.70;;;0.90;;
76171;SDS011;64929;51.178;4.138;2023-05-31T15:11:43;2.55;;;1.38;;
76171;SDS011;64929;51.178;4.138;2023-05-31T15:14:08;2.22;;;1.48;;
76171;SDS011;64929;51.178;4.138;2023-05-31T15:16:35;1.45;;;1.13;;
76171;SDS011;64929;51.178;4.138;2023-05-31T15:19:01;2.47;;;1.05;;
76171;SDS011;64929;51.178;4.138;2023-05-31T15:21:27;2.17;;;1.48;;
76171;SDS011;64929;51.178;4.138;2023-05-31T15:23:52;3.22;;;1.35;;
76171;SDS011;64929;51.178;4.138;2023-05-31T15:26:18;2.85;;;1.00;;
76171;SDS011;64929;51.178;4.138;2023-05-31T15:28:47;1.92;;;0.88;;
76171;SDS011;64929;51.178;4.138;2023-05-31T15:31:13;2.03;;;1.10;;
76171;SDS011;64929;51.178;4.138;2023-05-31T15:33:38;5.13;;;1.65;;